Time;durP1;ratioP1;P1;durP2;ratioP2;P2;SDS_P1;SDS_P2;PMS_P1;PMS_P2;Temp;Humidity;BMP_temperature;BMP_pressure;BME280_temperature;BME280_humidity;BME280_pressure;Samples;Min_cycle;Max_cycle;Signal;HPM_P1;HPM_P2
2023/10/11 00:00:37;;;;;;;10.57;5.10;;;;;;;;;;5045692;28;20045;-74
2023/10/11 00:03:17;;;;;;;9.98;5.45;;;;;;;;;;5046734;28;20025;-73
2023/10/11 00:05:44;;;;;;;14.02;6.65;;;;;;;;;;5030632;28;20212;-74
2023/10/11 00:08:17;;;;;;;12.80;6.60;;;;;;;;;;5045806;28;20014;-73
2023/10/11 00:10:47;;;;;;;11.73;5.65;;;;;;;;;;5046050;28;20022;-74
2023/10/11 00:13:16;;;;;;;9.60;5.20;;;;;;;;;;5045678;28;20061;-74
2023/10/11 00:15:49;;;;;;;13.98;6.47;;;;;;;;;;5046407;28;20037;-74
2023/10/11 00:18:18;;;;;;;8.57;4.57;;;;;;;;;;5046616;28;20029;-74
2023/10/11 00:20:50;;;;;;;9.50;4.63;;;;;;;;;;5033965;28;20041;-74
2023/10/11 00:23:21;;;;;;;8.63;5.45;;;;;;;;;;5028668;28;20105;-73
2023/10/11 00:25:49;;;;;;;13.63;5.30;;;;;;;;;;5046844;28;20010;-74
2023/10/11 00:28:15;;;;;;;8.77;4.85;;;;;;;;;;5043497;28;20041;-74
2023/10/11 00:30:46;;;;;;;10.60;5.20;;;;;;;;;;5044630;28;20072;-73
2023/10/11 00:33:14;;;;;;;10.57;5.00;;;;;;;;;;5044826;28;20085;-73
2023/10/11 00:35:47;;;;;;;10.32;5.82;;;;;;;;;;5033574;28;20021;-73
2023/10/11 00:38:14;;;;;;;;;;;;;;;;;;5047298;28;20026;-73
2023/10/11 00:40:43;;;;;;;8.73;5.45;;;;;;;;;;5036950;28;19901;-74
2023/10/11 00:43:13;;;;;;;13.40;5.75;;;;;;;;;;5044601;28;20029;-74
2023/10/11 00:45:39;;;;;;;14.25;6.40;;;;;;;;;;5044276;28;20029;-74
2023/10/11 00:48:11;;;;;;;9.95;4.38;;;;;;;;;;5028460;28;20018;-74
2023/10/11 00:50:39;;;;;;;15.87;6.63;;;;;;;;;;5048408;28;21114;-74
2023/10/11 00:53:09;;;;;;;15.50;8.80;;;;;;;;;;5035152;28;20042;-72
2023/10/11 00:55:35;;;;;;;16.02;8.00;;;;;;;;;;5047956;28;20048;-73
2023/10/11 00:58:01;;;;;;;13.82;6.20;;;;;;;;;;5031467;28;20049;-74
2023/10/11 01:00:28;;;;;;;13.27;6.43;;;;;;;;;;5036794;28;20092;-73
2023/10/11 01:02:55;;;;;;;11.48;5.18;;;;;;;;;;5050172;28;20017;-74
2023/10/11 01:05:22;;;;;;;10.40;5.28;;;;;;;;;;5049523;28;20067;-74
2023/10/11 01:07:52;;;;;;;13.52;5.80;;;;;;;;;;5049168;28;20082;-74
2023/10/11 01:10:23;;;;;;;9.17;6.03;;;;;;;;;;5051072;28;20025;-74
2023/10/11 01:12:49;;;;;;;15.80;8.25;;;;;;;;;;5047248;28;20034;-74
2023/10/11 01:15:23;;;;;;;10.50;5.20;;;;;;;;;;5048467;28;20049;-74
2023/10/11 01:17:49;;;;;;;11.77;5.47;;;;;;;;;;5048933;28;20017;-73
2023/10/11 01:20:21;;;;;;;7.07;4.00;;;;;;;;;;5032803;28;20036;-73
2023/10/11 01:22:48;;;;;;;12.45;4.97;;;;;;;;;;5049393;28;20032;-75
2023/10/11 01:25:18;;;;;;;10.80;5.30;;;;;;;;;;5049354;28;20029;-74
2023/10/11 01:27:48;;;;;;;10.27;4.87;;;;;;;;;;5031969;28;20089;-74
2023/10/11 01:30:14;;;;;;;9.40;4.87;;;;;;;;;;5036679;28;20017;-73
2023/10/11 01:32:44;;;;;;;11.10;4.77;;;;;;;;;;5044707;28;20049;-74
2023/10/11 01:35:18;;;;;;;12.50;4.97;;;;;;;;;;5030617;28;20053;-74
2023/10/11 01:37:44;;;;;;;7.80;4.65;;;;;;;;;;5030471;28;20037;-74
2023/10/11 01:40:20;;;;;;;12.30;5.73;;;;;;;;;;5049079;28;20050;-75
2023/10/11 01:42:49;;;;;;;12.53;5.53;;;;;;;;;;5031349;28;20028;-73
2023/10/11 01:45:20;;;;;;;18.13;5.97;;;;;;;;;;5049653;28;20028;-74
2023/10/11 01:47:50;;;;;;;8.07;5.03;;;;;;;;;;5047376;28;20097;-74
2023/10/11 01:50:17;;;;;;;8.10;4.60;;;;;;;;;;5031523;28;20017;-73
2023/10/11 01:52:49;;;;;;;9.35;4.80;;;;;;;;;;5030257;28;20018;-74
2023/10/11 01:55:15;;;;;;;10.98;6.05;;;;;;;;;;5048471;28;20044;-76
2023/10/11 01:57:45;;;;;;;8.63;4.53;;;;;;;;;;5047456;28;20036;-74
2023/10/11 02:00:13;;;;;;;11.47;4.47;;;;;;;;;;5046958;28;20018;-74
2023/10/11 02:02:47;;;;;;;12.17;5.03;;;;;;;;;;5032295;28;20037;-73
2023/10/11 02:05:13;;;;;;;15.53;6.10;;;;;;;;;;5048340;28;20022;-73
2023/10/11 02:07:39;;;;;;;13.47;5.80;;;;;;;;;;5031659;28;20097;-74
2023/10/11 02:10:06;;;;;;;15.97;5.17;;;;;;;;;;5032877;28;20017;-74
2023/10/11 02:12:35;;;;;;;8.97;5.53;;;;;;;;;;5033004;28;20074;-74
2023/10/11 02:15:07;;;;;;;11.77;4.83;;;;;;;;;;5047786;28;20038;-74
2023/10/11 02:17:37;;;;;;;15.35;5.30;;;;;;;;;;5029923;28;20041;-74
2023/10/11 02:20:05;;;;;;;7.37;4.23;;;;;;;;;;5034968;28;20045;-74
2023/10/11 02:22:33;;;;;;;14.37;6.47;;;;;;;;;;5046959;28;20009;-74
2023/10/11 02:25:03;;;;;;;14.33;6.50;;;;;;;;;;5049220;28;20072;-74
2023/10/11 02:27:32;;;;;;;10.73;5.23;;;;;;;;;;5031358;28;20074;-74
2023/10/11 02:30:01;;;;;;;9.20;5.10;;;;;;;;;;5048013;28;20052;-74
2023/10/11 02:32:33;;;;;;;11.68;4.45;;;;;;;;;;5048300;28;20017;-74
2023/10/11 02:34:59;;;;;;;10.88;6.07;;;;;;;;;;5050140;28;20025;-75
2023/10/11 02:37:29;;;;;;;10.53;5.33;;;;;;;;;;5044981;28;20237;-73
2023/10/11 02:39:55;;;;;;;12.73;5.23;;;;;;;;;;5032026;28;20094;-73
2023/10/11 02:42:21;;;;;;;17.08;5.45;;;;;;;;;;5047439;28;20022;-74
2023/10/11 02:44:48;;;;;;;10.77;5.27;;;;;;;;;;5037610;28;20241;-73
2023/10/11 02:47:22;;;;;;;10.03;4.93;;;;;;;;;;5047414;28;20052;-74
2023/10/11 02:49:51;;;;;;;11.83;6.43;;;;;;;;;;5048675;28;20027;-76
2023/10/11 02:52:18;;;;;;;15.63;7.80;;;;;;;;;;5044474;28;20033;-74
2023/10/11 02:54:46;;;;;;;15.65;5.80;;;;;;;;;;5047389;28;20021;-74
2023/10/11 02:57:21;;;;;;;9.97;4.77;;;;;;;;;;5035095;28;20029;-73
2023/10/11 02:59:52;;;;;;;17.40;5.70;;;;;;;;;;5037791;28;20025;-74
2023/10/11 03:02:21;;;;;;;13.70;5.27;;;;;;;;;;5036395;28;20126;-74
2023/10/11 03:04:47;;;;;;;11.60;5.20;;;;;;;;;;5051183;28;20323;-74
2023/10/11 03:07:15;;;;;;;10.57;5.50;;;;;;;;;;5031986;28;20021;-74
2023/10/11 03:09:43;;;;;;;14.17;5.23;;;;;;;;;;5037742;28;20034;-74
2023/10/11 03:12:19;;;;;;;10.10;5.13;;;;;;;;;;5037410;28;20021;-74
2023/10/11 03:14:54;;;;;;;10.70;4.87;;;;;;;;;;5037718;28;20037;-75
2023/10/11 03:17:20;;;;;;;12.13;5.50;;;;;;;;;;5041131;28;20032;-73
2023/10/11 03:19:49;;;;;;;11.43;5.00;;;;;;;;;;5034601;28;20026;-73
2023/10/11 03:22:19;;;;;;;13.40;5.70;;;;;;;;;;5048291;28;20037;-73
2023/10/11 03:24:53;;;;;;;9.33;4.93;;;;;;;;;;5031966;28;20013;-74
2023/10/11 03:27:19;;;;;;;21.97;5.77;;;;;;;;;;5032898;28;21394;-73
2023/10/11 03:29:45;;;;;;;12.67;5.47;;;;;;;;;;5030220;28;20037;-75
2023/10/11 03:32:14;;;;;;;8.97;4.50;;;;;;;;;;5031166;28;20053;-73
2023/10/11 03:34:40;;;;;;;15.90;5.57;;;;;;;;;;5031008;28;20056;-74
2023/10/11 03:37:10;;;;;;;10.93;5.30;;;;;;;;;;5030778;28;20037;-74
2023/10/11 03:42:12;;;;;;;10.93;4.97;;;;;;;;;;5046496;28;20048;-73
2023/10/11 03:44:46;;;;;;;13.33;5.13;;;;;;;;;;5031522;28;20024;-74
2023/10/11 03:47:24;;;;;;;13.23;5.40;;;;;;;;;;5030057;28;20033;-74
2023/10/11 03:52:22;;;;;;;20.60;5.67;;;;;;;;;;5047939;28;20060;-74
2023/10/11 03:54:53;;;;;;;10.63;5.07;;;;;;;;;;5030051;28;20072;-74
2023/10/11 03:57:19;;;;;;;10.30;5.57;;;;;;;;;;5046842;28;20018;-74
2023/10/11 03:59:48;;;;;;;13.33;5.93;;;;;;;;;;5031847;28;20029;-74
2023/10/11 04:02:23;;;;;;;11.43;5.47;;;;;;;;;;5046144;28;20029;-74
2023/10/11 04:04:49;;;;;;;13.47;5.40;;;;;;;;;;5046889;28;20017;-74
2023/10/11 04:07:23;;;;;;;12.27;5.63;;;;;;;;;;5047251;28;20048;-74
2023/10/11 04:09:49;;;;;;;14.57;5.63;;;;;;;;;;5032480;28;20021;-74
2023/10/11 04:12:24;;;;;;;14.57;5.30;;;;;;;;;;5045802;28;20025;-75
2023/10/11 04:14:52;;;;;;;13.43;5.50;;;;;;;;;;5048135;28;20022;-73
2023/10/11 04:19:52;;;;;;;11.37;4.93;;;;;;;;;;5047634;28;20014;-74
2023/10/11 04:22:23;;;;;;;10.90;5.97;;;;;;;;;;5031030;28;20030;-73
2023/10/11 04:24:53;;;;;;;14.77;5.78;;;;;;;;;;5030223;28;20049;-74
2023/10/11 04:29:52;;;;;;;10.97;5.47;;;;;;;;;;5048213;28;20036;-73
2023/10/11 04:33:10;;;;;;;12.40;5.07;;;;;;;;;;5030982;28;20053;-73
2023/10/11 04:38:01;;;;;;;11.17;5.80;;;;;;;;;;5047342;28;20032;-74
2023/10/11 04:43:06;;;;;;;;;;;;;;;;;;5047038;28;20101;-73
2023/10/11 04:45:45;;;;;;;10.45;5.25;;;;;;;;;;5034298;28;19917;-74
2023/10/11 04:48:29;;;;;;;16.83;5.97;;;;;;;;;;5032731;28;20029;-73
2023/10/11 04:51:07;;;;;;;11.47;5.93;;;;;;;;;;5047922;28;20029;-73
2023/10/11 04:53:54;;;;;;;12.17;5.50;;;;;;;;;;5045870;28;20039;-74
2023/10/11 04:59:08;;;;;;;11.23;5.23;;;;;;;;;;5048503;28;20052;-74
2023/10/11 05:04:26;;;;;;;15.37;5.23;;;;;;;;;;5046363;28;20029;-74
2023/10/11 05:06:53;;;;;;;13.50;5.73;;;;;;;;;;5049550;28;20022;-75
2023/10/11 05:11:58;;;;;;;11.27;5.27;;;;;;;;;;5048369;28;20085;-73
2023/10/11 05:14:37;;;;;;;14.60;5.03;;;;;;;;;;5048510;28;20044;-74
2023/10/11 05:19:46;;;;;;;10.27;5.40;;;;;;;;;;5047617;28;20030;-74
2023/10/11 05:32:49;;;;;;;14.80;7.33;;;;;;;;;;5048401;28;20029;-73
2023/10/11 05:51:39;;;;;;;17.27;6.53;;;;;;;;;;5050676;28;20168;-74
2023/10/11 05:54:07;;;;;;;19.50;6.57;;;;;;;;;;5050875;28;20085;-74
2023/10/11 05:56:33;;;;;;;17.53;6.27;;;;;;;;;;5033080;28;20049;-73
2023/10/11 05:59:09;;;;;;;19.03;6.80;;;;;;;;;;5034455;28;20045;-73
2023/10/11 06:01:37;;;;;;;13.80;6.00;;;;;;;;;;5034721;28;20036;-74
2023/10/11 06:04:08;;;;;;;11.70;6.10;;;;;;;;;;5035277;28;20010;-74
2023/10/11 06:06:47;;;;;;;10.27;5.30;;;;;;;;;;5049385;28;20085;-73
2023/10/11 06:09:18;;;;;;;14.37;6.13;;;;;;;;;;5031768;28;20089;-74
2023/10/11 06:11:48;;;;;;;11.87;6.37;;;;;;;;;;5052088;28;20085;-74
2023/10/11 06:14:23;;;;;;;19.07;6.60;;;;;;;;;;5044136;28;20017;-73
2023/10/11 06:16:55;;;;;;;20.90;7.33;;;;;;;;;;5049608;28;20037;-74
2023/10/11 06:19:28;;;;;;;18.73;7.57;;;;;;;;;;5033527;28;20034;-74
2023/10/11 06:21:57;;;;;;;;;;;;;;;;;;5034606;28;20089;-75
2023/10/11 06:24:39;;;;;;;20.97;7.07;;;;;;;;;;5051198;28;19901;-73
2023/10/11 06:29:45;;;;;;;21.15;6.80;;;;;;;;;;5049769;28;20060;-74
2023/10/11 06:32:11;;;;;;;15.17;6.83;;;;;;;;;;5048795;28;20021;-73
2023/10/11 06:34:45;;;;;;;16.83;7.37;;;;;;;;;;5033514;28;20029;-74
2023/10/11 06:37:14;;;;;;;16.93;6.00;;;;;;;;;;5049598;28;20042;-73
2023/10/11 06:42:13;;;;;;;14.83;5.97;;;;;;;;;;5050522;28;20025;-74
2023/10/11 06:44:47;;;;;;;15.10;6.27;;;;;;;;;;5048943;28;20136;-74
2023/10/11 06:47:13;;;;;;;16.47;6.90;;;;;;;;;;5031018;28;20048;-76
2023/10/11 06:49:44;;;;;;;13.20;6.57;;;;;;;;;;5047631;28;21174;-73
2023/10/11 06:52:25;;;;;;;15.47;7.23;;;;;;;;;;5031051;28;20034;-73
2023/10/11 06:55:07;;;;;;;17.70;8.17;;;;;;;;;;5046793;28;20049;-73
2023/10/11 06:57:38;;;;;;;;;;;;;;;;;;5047992;28;20239;-74
2023/10/11 07:00:12;;;;;;;20.17;10.80;;;;;;;;;;5029024;28;19909;-73
2023/10/11 07:02:47;;;;;;;18.13;9.40;;;;;;;;;;5033130;28;20039;-73
2023/10/11 07:05:17;;;;;;;14.70;8.63;;;;;;;;;;5048000;28;20067;-75
2023/10/11 07:07:47;;;;;;;22.10;11.50;;;;;;;;;;5046596;28;20085;-75
2023/10/11 07:10:27;;;;;;;18.30;9.03;;;;;;;;;;5046127;28;20093;-74
2023/10/11 07:13:03;;;;;;;25.03;9.93;;;;;;;;;;5044947;28;20088;-75
2023/10/11 07:15:37;;;;;;;21.23;10.50;;;;;;;;;;5028725;28;20118;-75
2023/10/11 07:18:08;;;;;;;26.33;12.37;;;;;;;;;;5045856;28;20021;-73
2023/10/11 07:20:49;;;;;;;19.88;9.85;;;;;;;;;;5045011;28;20068;-74
2023/10/11 07:23:20;;;;;;;21.75;8.85;;;;;;;;;;5030754;28;20044;-74
2023/10/11 07:25:47;;;;;;;23.17;9.03;;;;;;;;;;5045006;28;20017;-74
2023/10/11 07:28:35;;;;;;;23.58;8.88;;;;;;;;;;5046828;28;20091;-74
2023/10/11 07:31:03;;;;;;;14.55;7.32;;;;;;;;;;5046834;28;20124;-74
2023/10/11 07:33:29;;;;;;;23.00;8.55;;;;;;;;;;5046510;28;20026;-74
2023/10/11 07:35:55;;;;;;;23.35;8.35;;;;;;;;;;5045859;28;20037;-74
2023/10/11 07:38:21;;;;;;;16.75;7.22;;;;;;;;;;5046395;28;20046;-74
2023/10/11 07:40:52;;;;;;;11.75;5.10;;;;;;;;;;5048107;28;21154;-74
2023/10/11 07:43:18;;;;;;;15.18;5.68;;;;;;;;;;5033889;28;20022;-74
2023/10/11 07:45:47;;;;;;;14.52;6.13;;;;;;;;;;5031821;28;20071;-73
2023/10/11 07:48:16;;;;;;;22.55;9.95;;;;;;;;;;5046707;28;20014;-73
2023/10/11 07:50:46;;;;;;;15.35;6.72;;;;;;;;;;5043284;28;20026;-73
2023/10/11 07:53:13;;;;;;;14.77;6.53;;;;;;;;;;5031291;28;20036;-74
2023/10/11 07:55:40;;;;;;;24.38;6.88;;;;;;;;;;5045538;28;20057;-72
2023/10/11 07:58:08;;;;;;;16.10;5.50;;;;;;;;;;5046003;28;20128;-73
2023/10/11 08:00:41;;;;;;;19.05;5.90;;;;;;;;;;5047348;28;20044;-73
2023/10/11 08:03:11;;;;;;;17.35;6.18;;;;;;;;;;5030000;28;20022;-73
2023/10/11 08:05:45;;;;;;;15.45;5.03;;;;;;;;;;5048174;28;20033;-73
2023/10/11 08:08:15;;;;;;;16.25;4.82;;;;;;;;;;5047296;28;20026;-73
2023/10/11 08:10:44;;;;;;;12.52;4.95;;;;;;;;;;5029946;28;20033;-74
2023/10/11 08:13:31;;;;;;;10.73;4.68;;;;;;;;;;5045333;28;20026;-73
2023/10/11 08:16:05;;;;;;;15.82;5.25;;;;;;;;;;5043309;28;20049;-73
2023/10/11 08:18:32;;;;;;;11.88;4.75;;;;;;;;;;5031643;28;20026;-74
2023/10/11 08:20:58;;;;;;;11.90;4.90;;;;;;;;;;5042340;28;20048;-73
2023/10/11 08:23:33;;;;;;;12.10;4.97;;;;;;;;;;5042767;28;20018;-74
2023/10/11 08:26:05;;;;;;;15.13;4.60;;;;;;;;;;5026607;28;20022;-74
2023/10/11 08:28:34;;;;;;;13.57;4.43;;;;;;;;;;5028069;28;20018;-73
2023/10/11 08:31:00;;;;;;;18.33;5.40;;;;;;;;;;5045505;28;20067;-74
2023/10/11 08:33:31;;;;;;;11.75;4.47;;;;;;;;;;5044502;28;20030;-74
2023/10/11 08:35:58;;;;;;;13.63;4.55;;;;;;;;;;5046381;28;20037;-74
2023/10/11 08:38:25;;;;;;;14.23;4.25;;;;;;;;;;5044013;28;20010;-74
2023/10/11 08:40:59;;;;;;;11.52;4.07;;;;;;;;;;5044797;28;20022;-74
2023/10/11 08:43:26;;;;;;;11.75;4.35;;;;;;;;;;5043277;28;20037;-74
2023/10/11 08:46:08;;;;;;;13.13;4.32;;;;;;;;;;5046070;28;20029;-74
2023/10/11 08:48:38;;;;;;;14.70;4.20;;;;;;;;;;5047746;28;20049;-74
2023/10/11 08:51:10;;;;;;;11.07;4.45;;;;;;;;;;5033177;28;20405;-74
2023/10/11 08:53:36;;;;;;;;;;;;;;;;;;5047209;28;20037;-74
2023/10/11 08:56:09;;;;;;;13.80;4.00;;;;;;;;;;5036029;28;19917;-74
2023/10/11 08:58:36;;;;;;;12.68;4.38;;;;;;;;;;5046747;28;20061;-74
2023/10/11 09:01:02;;;;;;;14.70;5.10;;;;;;;;;;5039011;28;20022;-74
2023/10/11 09:03:46;;;;;;;13.52;4.28;;;;;;;;;;5036533;28;20037;-74
2023/10/11 09:06:24;;;;;;;17.52;5.38;;;;;;;;;;5047692;28;20017;-73
2023/10/11 09:08:51;;;;;;;11.93;5.35;;;;;;;;;;5049011;28;20017;-75
2023/10/11 09:11:31;;;;;;;14.27;5.80;;;;;;;;;;5038917;28;20029;-74
2023/10/11 09:14:22;;;;;;;13.40;6.57;;;;;;;;;;5046031;28;20026;-74
2023/10/11 09:16:48;;;;;;;12.27;3.88;;;;;;;;;;5053889;28;20045;-72
2023/10/11 09:19:19;;;;;;;12.98;6.30;;;;;;;;;;5052644;28;20027;-73
2023/10/11 09:21:59;;;;;;;24.43;5.30;;;;;;;;;;5048823;28;20303;-77
2023/10/11 09:24:38;;;;;;;25.02;6.03;;;;;;;;;;5049422;28;20042;-74
2023/10/11 09:29:48;;;;;;;20.80;7.65;;;;;;;;;;5047078;28;20131;-74
2023/10/11 09:32:19;;;;;;;16.85;6.00;;;;;;;;;;5048119;28;20083;-73
2023/10/11 09:34:45;;;;;;;13.18;5.00;;;;;;;;;;5040963;28;20045;-81
2023/10/11 09:37:12;;;;;;;14.82;6.05;;;;;;;;;;5033332;28;20034;-76
2023/10/11 09:39:38;;;;;;;10.98;3.88;;;;;;;;;;5011853;28;20033;-82
2023/10/11 09:42:08;;;;;;;8.15;3.60;;;;;;;;;;5037008;28;20025;-80
2023/10/11 09:44:39;;;;;;;11.63;4.18;;;;;;;;;;5015702;28;20025;-84
2023/10/11 09:47:06;;;;;;;11.80;4.35;;;;;;;;;;5006235;28;20053;-79
2023/10/11 09:49:41;;;;;;;15.75;4.82;;;;;;;;;;5020442;28;20041;-82
2023/10/11 09:52:16;;;;;;;12.50;4.40;;;;;;;;;;5019426;28;20034;-82
2023/10/11 09:54:42;;;;;;;8.13;3.78;;;;;;;;;;5005596;28;20061;-82
2023/10/11 09:57:35;;;;;;;8.27;4.43;;;;;;;;;;5003209;28;20033;-79
2023/10/11 10:00:14;;;;;;;13.10;3.80;;;;;;;;;;5019753;28;20543;-78
2023/10/11 10:02:44;;;;;;;19.48;4.40;;;;;;;;;;5020555;28;20129;-82
2023/10/11 10:05:11;;;;;;;14.15;3.67;;;;;;;;;;5021157;28;20101;-82
2023/10/11 10:07:45;;;;;;;17.23;4.63;;;;;;;;;;5024830;28;20141;-80
2023/10/11 10:10:12;;;;;;;6.68;3.05;;;;;;;;;;5017116;28;20036;-80
2023/10/11 10:12:56;;;;;;;11.40;2.90;;;;;;;;;;5009942;28;20022;-80
2023/10/11 10:15:28;;;;;;;11.05;3.47;;;;;;;;;;5020403;28;20348;-78
2023/10/11 10:17:56;;;;;;;;;;;;;;;;;;5020759;28;20034;-79
2023/10/11 10:20:41;;;;;;;9.63;3.30;;;;;;;;;;5006412;28;20404;-78
2023/10/11 10:23:16;;;;;;;8.60;3.20;;;;;;;;;;5015820;28;20122;-79
2023/10/11 10:25:50;;;;;;;12.10;2.92;;;;;;;;;;5002840;28;20048;-79
2023/10/11 10:28:46;;;;;;;12.73;2.83;;;;;;;;;;5016911;28;20030;-77
2023/10/11 10:31:16;;;;;;;10.50;2.90;;;;;;;;;;5002178;28;20037;-79
2023/10/11 10:33:43;;;;;;;8.00;2.85;;;;;;;;;;5004566;28;20033;-80
2023/10/11 10:36:18;;;;;;;12.60;2.95;;;;;;;;;;5017206;28;20038;-78
2023/10/11 10:39:30;;;;;;;11.82;3.42;;;;;;;;;;5017958;28;20030;-81
2023/10/11 10:42:13;;;;;;;11.02;3.50;;;;;;;;;;5016507;28;20164;-79
2023/10/11 10:44:50;;;;;;;9.68;2.92;;;;;;;;;;5005989;28;20099;-79
2023/10/11 10:47:21;;;;;;;7.57;3.28;;;;;;;;;;5017871;28;20026;-80
2023/10/11 10:49:50;;;;;;;13.68;3.42;;;;;;;;;;5018738;28;20366;-80
2023/10/11 10:52:19;;;;;;;13.20;3.15;;;;;;;;;;5005060;28;20038;-79
2023/10/11 10:54:55;;;;;;;10.52;2.83;;;;;;;;;;5017354;28;20362;-79
2023/10/11 10:57:25;;;;;;;10.63;3.38;;;;;;;;;;5008182;28;20034;-79
2023/10/11 10:59:51;;;;;;;8.77;3.42;;;;;;;;;;5017750;28;20033;-78
2023/10/11 11:02:19;;;;;;;19.35;3.65;;;;;;;;;;5018722;28;20369;-81
2023/10/11 11:04:45;;;;;;;13.70;3.28;;;;;;;;;;5002403;28;20026;-79
2023/10/11 11:07:22;;;;;;;15.52;3.38;;;;;;;;;;5018682;28;20038;-78
2023/10/11 11:09:54;;;;;;;8.77;2.60;;;;;;;;;;5017843;28;20026;-78
2023/10/11 11:12:27;;;;;;;15.23;3.58;;;;;;;;;;5019254;28;20021;-78
2023/10/11 11:14:54;;;;;;;13.00;2.88;;;;;;;;;;5000852;28;20152;-79
2023/10/11 11:17:22;;;;;;;11.55;3.20;;;;;;;;;;5018777;28;20061;-78
2023/10/11 11:20:15;;;;;;;9.52;3.50;;;;;;;;;;5003619;28;20041;-79
2023/10/11 11:22:41;;;;;;;;;;;;;;;;;;5022019;28;20048;-78
2023/10/11 11:25:45;;;;;;;11.15;3.72;;;;;;;;;;5016751;28;19913;-77
2023/10/11 11:28:04;;;;;;;9.50;3.53;;;;;;;;;;5013336;28;20030;-79
2023/10/11 11:30:33;;;;;;;12.45;3.40;;;;;;;;;;5020811;28;20125;-78
2023/10/11 11:33:08;;;;;;;15.15;3.20;;;;;;;;;;5016587;28;20112;-78
2023/10/11 11:35:45;;;;;;;16.48;3.97;;;;;;;;;;5017853;28;20124;-79
2023/10/11 11:38:21;;;;;;;14.15;3.53;;;;;;;;;;5005843;28;20243;-77
2023/10/11 11:40:47;;;;;;;13.05;3.33;;;;;;;;;;5015438;28;20475;-78
2023/10/11 11:43:17;;;;;;;11.05;3.67;;;;;;;;;;5002242;28;20568;-77
2023/10/11 11:45:44;;;;;;;14.95;3.53;;;;;;;;;;5016146;28;20406;-79
2023/10/11 11:48:10;;;;;;;12.75;3.42;;;;;;;;;;5017856;28;20029;-78
2023/10/11 11:50:37;;;;;;;13.98;3.80;;;;;;;;;;5017861;28;20029;-79
2023/10/11 11:53:04;;;;;;;14.50;2.92;;;;;;;;;;5019999;28;20029;-79
2023/10/11 11:55:31;;;;;;;14.23;3.78;;;;;;;;;;5016706;28;20061;-80
2023/10/11 11:57:58;;;;;;;17.45;3.78;;;;;;;;;;5000989;28;20048;-78
2023/10/11 12:02:54;;;;;;;14.30;3.60;;;;;;;;;;5017410;28;20037;-78
2023/10/11 12:05:22;;;;;;;15.82;3.13;;;;;;;;;;5015392;28;20029;-78
2023/10/11 12:07:57;;;;;;;12.80;3.47;;;;;;;;;;4999236;28;20033;-79
2023/10/11 12:10:24;;;;;;;14.52;3.95;;;;;;;;;;5018157;28;20025;-77
2023/10/11 12:12:50;;;;;;;19.85;4.25;;;;;;;;;;5000103;28;20252;-79
2023/10/11 12:15:17;;;;;;;13.65;3.80;;;;;;;;;;5018508;28;20049;-80
2023/10/11 12:17:43;;;;;;;12.10;3.75;;;;;;;;;;5019468;28;20029;-79
2023/10/11 12:20:13;;;;;;;11.13;3.70;;;;;;;;;;5015929;28;20524;-79
2023/10/11 12:22:42;;;;;;;15.70;3.78;;;;;;;;;;5000905;28;20030;-78
2023/10/11 12:25:11;;;;;;;15.68;3.85;;;;;;;;;;4999761;28;20034;-78
2023/10/11 12:27:40;;;;;;;12.63;4.07;;;;;;;;;;5015708;28;20025;-78
2023/10/11 12:30:10;;;;;;;18.42;3.97;;;;;;;;;;5015964;28;20148;-78
2023/10/11 12:32:39;;;;;;;11.60;3.80;;;;;;;;;;5013894;28;20037;-78
2023/10/11 12:35:09;;;;;;;18.23;3.70;;;;;;;;;;5015447;28;20033;-78
2023/10/11 12:37:35;;;;;;;14.15;3.80;;;;;;;;;;5017011;28;20036;-79
2023/10/11 12:40:11;;;;;;;18.00;4.05;;;;;;;;;;4999402;28;20030;-78
2023/10/11 12:42:37;;;;;;;14.63;4.10;;;;;;;;;;5019927;28;20025;-78
2023/10/11 12:45:07;;;;;;;16.23;3.83;;;;;;;;;;5004094;28;20029;-79
2023/10/11 12:47:34;;;;;;;17.75;3.90;;;;;;;;;;5022875;28;20045;-79
2023/10/11 12:50:00;;;;;;;23.65;4.43;;;;;;;;;;5002201;28;20038;-78
2023/10/11 12:52:30;;;;;;;24.23;4.55;;;;;;;;;;5021350;28;20131;-78
2023/10/11 12:54:57;;;;;;;19.20;4.07;;;;;;;;;;5018507;28;20026;-78
2023/10/11 12:57:27;;;;;;;18.45;4.50;;;;;;;;;;5008817;28;20112;-79
2023/10/11 12:59:53;;;;;;;14.82;3.75;;;;;;;;;;5020610;28;20026;-78
2023/10/11 13:02:29;;;;;;;20.92;4.50;;;;;;;;;;5021450;28;20026;-80
2023/10/11 13:04:58;;;;;;;24.33;3.58;;;;;;;;;;5019682;28;20025;-78
2023/10/11 13:07:26;;;;;;;11.48;3.45;;;;;;;;;;5003734;28;20124;-78
2023/10/11 13:09:54;;;;;;;16.45;3.88;;;;;;;;;;5003066;28;20025;-78
2023/10/11 13:12:20;;;;;;;19.02;4.22;;;;;;;;;;5020611;28;20045;-82
2023/10/11 13:14:51;;;;;;;21.50;4.15;;;;;;;;;;5020299;28;20083;-79
2023/10/11 13:17:19;;;;;;;28.90;4.45;;;;;;;;;;5008494;28;20354;-79
2023/10/11 13:19:45;;;;;;;12.18;3.70;;;;;;;;;;5002901;28;20030;-78
2023/10/11 13:22:13;;;;;;;20.17;4.25;;;;;;;;;;5017293;28;20040;-78
2023/10/11 13:24:42;;;;;;;13.60;3.75;;;;;;;;;;5018571;28;20080;-79
2023/10/11 13:27:10;;;;;;;12.40;4.03;;;;;;;;;;5007392;28;20116;-78
2023/10/11 13:29:38;;;;;;;22.88;4.03;;;;;;;;;;5003299;28;20041;-78
2023/10/11 13:32:04;;;;;;;19.10;4.60;;;;;;;;;;5002681;28;20044;-78
2023/10/11 13:34:34;;;;;;;15.60;3.97;;;;;;;;;;5017560;28;20038;-79
2023/10/11 13:37:00;;;;;;;24.73;4.07;;;;;;;;;;5003473;28;20305;-78
2023/10/11 13:39:27;;;;;;;18.00;3.10;;;;;;;;;;5017522;28;20057;-78
2023/10/11 13:41:53;;;;;;;23.10;3.65;;;;;;;;;;5018108;28;20033;-86
2023/10/11 13:44:21;;;;;;;21.65;4.53;;;;;;;;;;5017168;28;20033;-81
2023/10/11 13:46:51;;;;;;;12.93;3.38;;;;;;;;;;5016691;28;20034;-85
2023/10/11 13:49:24;;;;;;;16.95;4.03;;;;;;;;;;5006900;28;20076;-85
2023/10/11 13:51:51;;;;;;;12.05;3.55;;;;;;;;;;5007285;28;20726;-86
2023/10/11 13:54:31;;;;;;;14.60;4.60;;;;;;;;;;5016561;28;20111;-78
2023/10/11 13:57:00;;;;;;;21.25;3.92;;;;;;;;;;5017428;28;20112;-78
2023/10/11 13:59:28;;;;;;;16.23;4.22;;;;;;;;;;5017751;28;20040;-79
2023/10/11 14:07:54;;;;;;;25.58;3.90;;;;;;;;;;5017577;28;20485;-79
2023/10/11 14:09:56;;;;;;;15.10;3.45;;;;;;;;;;5000951;28;20063;-79
2023/10/11 14:12:35;;;;;;;15.05;3.70;;;;;;;;;;5001562;28;20076;-79
2023/10/11 14:15:06;;;;;;;10.98;2.92;;;;;;;;;;5001726;28;20041;-78
2023/10/11 14:17:38;;;;;;;16.23;4.13;;;;;;;;;;5019339;28;20064;-79
2023/10/11 14:20:05;;;;;;;15.35;3.60;;;;;;;;;;5017624;28;20079;-78
2023/10/11 14:22:32;;;;;;;14.57;3.42;;;;;;;;;;5019772;28;20088;-78
2023/10/11 14:24:59;;;;;;;13.80;3.60;;;;;;;;;;5002853;28;20120;-78
2023/10/11 14:27:25;;;;;;;11.98;3.22;;;;;;;;;;5018149;28;20029;-78
2023/10/11 14:29:51;;;;;;;16.13;3.70;;;;;;;;;;5007299;28;20029;-78
2023/10/11 14:32:17;;;;;;;16.67;3.95;;;;;;;;;;5009957;28;20044;-77
2023/10/11 14:34:51;;;;;;;18.05;3.63;;;;;;;;;;5019616;28;20080;-77
2023/10/11 14:37:19;;;;;;;14.85;3.05;;;;;;;;;;5018049;28;20029;-78
2023/10/11 14:39:49;;;;;;;13.60;3.72;;;;;;;;;;5017925;28;20053;-78
2023/10/11 14:42:15;;;;;;;16.20;3.15;;;;;;;;;;5017391;28;20118;-76
2023/10/11 14:44:42;;;;;;;14.65;3.78;;;;;;;;;;5017657;28;20118;-78
2023/10/11 14:47:13;;;;;;;14.95;3.45;;;;;;;;;;5016630;28;20112;-83
2023/10/11 14:49:39;;;;;;;14.50;3.73;;;;;;;;;;5006027;28;20083;-83
2023/10/11 14:52:07;;;;;;;18.20;2.92;;;;;;;;;;5016889;28;20288;-85
2023/10/11 14:54:34;;;;;;;15.35;3.78;;;;;;;;;;5016583;28;20116;-85
2023/10/11 14:57:00;;;;;;;15.88;3.40;;;;;;;;;;5016871;28;20037;-83
2023/10/11 14:59:26;;;;;;;12.40;3.20;;;;;;;;;;5006578;28;20109;-80
2023/10/11 15:01:52;;;;;;;17.70;3.35;;;;;;;;;;5016780;28;20556;-80
2023/10/11 15:04:18;;;;;;;16.80;4.25;;;;;;;;;;5016661;28;20030;-81
2023/10/11 15:06:50;;;;;;;11.80;4.55;;;;;;;;;;5015818;28;20072;-82
2023/10/11 15:09:16;;;;;;;15.18;4.22;;;;;;;;;;5014457;28;20072;-81
2023/10/11 15:11:42;;;;;;;14.95;3.40;;;;;;;;;;5016956;28;20037;-83
2023/10/11 15:14:11;;;;;;;20.45;4.07;;;;;;;;;;5018043;28;20389;-81
2023/10/11 15:16:37;;;;;;;19.02;3.50;;;;;;;;;;5013035;28;20061;-83
2023/10/11 15:19:03;;;;;;;18.40;3.95;;;;;;;;;;5008176;28;20037;-86
2023/10/11 15:21:29;;;;;;;15.02;4.00;;;;;;;;;;5014832;28;20017;-81
2023/10/11 15:23:55;;;;;;;10.10;4.05;;;;;;;;;;5018441;28;20026;-82
2023/10/11 15:26:22;;;;;;;15.68;3.83;;;;;;;;;;5016840;28;20086;-86
2023/10/11 15:28:49;;;;;;;17.67;4.10;;;;;;;;;;5017044;28;20069;-79
2023/10/11 15:31:16;;;;;;;19.95;3.55;;;;;;;;;;5000711;28;20457;-83
2023/10/11 15:33:43;;;;;;;17.38;3.92;;;;;;;;;;5014600;28;20152;-84
2023/10/11 15:36:09;;;;;;;15.27;3.45;;;;;;;;;;5004071;28;20088;-80
2023/10/11 15:38:35;;;;;;;15.57;3.38;;;;;;;;;;5016820;28;20588;-81
2023/10/11 15:41:05;;;;;;;13.65;3.20;;;;;;;;;;5000400;28;20037;-86
2023/10/11 15:43:35;;;;;;;15.35;3.35;;;;;;;;;;5016529;28;20548;-86
2023/10/11 15:46:04;;;;;;;19.15;4.07;;;;;;;;;;5014713;28;20434;-83
2023/10/11 15:48:34;;;;;;;12.25;3.55;;;;;;;;;;5015048;28;20034;-82
2023/10/11 15:51:04;;;;;;;13.02;3.75;;;;;;;;;;5013954;28;20450;-82
2023/10/11 15:53:33;;;;;;;18.55;2.92;;;;;;;;;;5013040;28;20060;-81
2023/10/11 15:56:03;;;;;;;17.05;3.90;;;;;;;;;;4999339;28;20073;-82
2023/10/11 15:58:37;;;;;;;12.75;3.22;;;;;;;;;;5005053;28;20025;-84
2023/10/11 16:01:04;;;;;;;22.65;3.60;;;;;;;;;;5015778;28;20037;-82